sensor_id;sensor_type;location;lat;lon;timestamp;P1;P2;P0
26185;PMS7003;20067;48.764;9.176;2022-09-01T00:01:48;35.25;31.00;18.75
26185;PMS7003;20067;48.764;9.176;2022-09-01T00:04:17;38.25;31.25;20.00
26185;PMS7003;20067;48.764;9.176;2022-09-01T00:06:45;39.00;33.00;20.00
26185;PMS7003;20067;48.764;9.176;2022-09-01T00:09:13;32.25;30.00;20.25
26185;PMS7003;20067;48.764;9.176;2022-09-01T00:11:44;31.00;29.00;17.25
26185;PMS7003;20067;48.764;9.176;2022-09-01T00:14:12;31.75;29.25;17.75
26185;PMS7003;20067;48.764;9.176;2022-09-01T00:16:38;34.50;29.00;19.75
26185;PMS7003;20067;48.764;9.176;2022-09-01T00:19:04;39.00;33.25;18.75
26185;PMS7003;20067;48.764;9.176;2022-09-01T00:21:32;33.75;32.00;20.25
26185;PMS7003;20067;48.764;9.176;2022-09-01T00:23:59;42.50;31.50;19.00
26185;PMS7003;20067;48.764;9.176;2022-09-01T00:26:26;34.25;30.50;18.25
26185;PMS7003;20067;48.764;9.176;2022-09-01T00:28:52;29.25;28.00;20.00
26185;PMS7003;20067;48.764;9.176;2022-09-01T00:31:18;32.75;27.75;17.00
26185;PMS7003;20067;48.764;9.176;2022-09-01T00:33:45;36.50;30.75;18.75
26185;PMS7003;20067;48.764;9.176;2022-09-01T00:36:12;29.25;27.50;18.50
26185;PMS7003;20067;48.764;9.176;2022-09-01T00:38:39;34.00;29.75;20.00
26185;PMS7003;20067;48.764;9.176;2022-09-01T00:41:04;36.75;31.75;19.50
26185;PMS7003;20067;48.764;9.176;2022-09-01T00:46:07;33.50;29.50;19.00
26185;PMS7003;20067;48.764;9.176;2022-09-01T00:49:01;38.00;32.75;20.00
26185;PMS7003;20067;48.764;9.176;2022-09-01T00:51:32;36.25;29.00;18.25
26185;PMS7003;20067;48.764;9.176;2022-09-01T00:54:01;37.00;32.25;19.50
26185;PMS7003;20067;48.764;9.176;2022-09-01T00:56:29;36.00;34.50;19.25
26185;PMS7003;20067;48.764;9.176;2022-09-01T00:58:57;35.50;32.25;21.00
26185;PMS7003;20067;48.764;9.176;2022-09-01T01:01:25;33.25;30.25;20.25
26185;PMS7003;20067;48.764;9.176;2022-09-01T01:03:50;34.00;29.00;19.00
26185;PMS7003;20067;48.764;9.176;2022-09-01T01:06:16;33.25;29.50;19.25
26185;PMS7003;20067;48.764;9.176;2022-09-01T01:08:47;39.75;31.50;19.75
26185;PMS7003;20067;48.764;9.176;2022-09-01T01:11:20;35.50;28.00;19.25
26185;PMS7003;20067;48.764;9.176;2022-09-01T01:13:48;36.00;33.25;21.25
26185;PMS7003;20067;48.764;9.176;2022-09-01T01:16:20;36.25;32.25;22.00
26185;PMS7003;20067;48.764;9.176;2022-09-01T01:18:48;38.50;31.75;19.00
26185;PMS7003;20067;48.764;9.176;2022-09-01T01:21:17;34.25;31.25;20.25
26185;PMS7003;20067;48.764;9.176;2022-09-01T01:26:33;32.00;30.75;20.00
26185;PMS7003;20067;48.764;9.176;2022-09-01T01:28:59;39.75;30.50;20.75
26185;PMS7003;20067;48.764;9.176;2022-09-01T01:31:26;41.00;37.00;19.75
26185;PMS7003;20067;48.764;9.176;2022-09-01T01:33:53;41.00;35.00;23.00
26185;PMS7003;20067;48.764;9.176;2022-09-01T01:36:22;37.75;36.00;22.75
26185;PMS7003;20067;48.764;9.176;2022-09-01T01:38:57;39.50;35.75;25.00
26185;PMS7003;20067;48.764;9.176;2022-09-01T01:41:27;39.50;36.00;25.75
26185;PMS7003;20067;48.764;9.176;2022-09-01T01:43:56;45.50;36.75;22.75
26185;PMS7003;20067;48.764;9.176;2022-09-01T01:46:24;36.75;34.25;23.00
26185;PMS7003;20067;48.764;9.176;2022-09-01T01:48:50;38.75;34.75;22.00
26185;PMS7003;20067;48.764;9.176;2022-09-01T01:51:18;40.00;33.25;22.25
26185;PMS7003;20067;48.764;9.176;2022-09-01T01:53:45;35.25;34.50;23.50
26185;PMS7003;20067;48.764;9.176;2022-09-01T01:56:16;37.25;33.50;22.75
26185;PMS7003;20067;48.764;9.176;2022-09-01T01:58:43;39.25;37.75;25.25
26185;PMS7003;20067;48.764;9.176;2022-09-01T02:01:09;37.75;34.75;22.00
26185;PMS7003;20067;48.764;9.176;2022-09-01T02:03:36;35.00;32.00;22.25
26185;PMS7003;20067;48.764;9.176;2022-09-01T02:06:07;33.25;30.75;19.00
26185;PMS7003;20067;48.764;9.176;2022-09-01T02:08:35;38.00;33.00;18.75
26185;PMS7003;20067;48.764;9.176;2022-09-01T02:11:03;36.25;31.75;20.50
26185;PMS7003;20067;48.764;9.176;2022-09-01T02:13:30;34.75;28.50;17.50
26185;PMS7003;20067;48.764;9.176;2022-09-01T02:16:00;35.75;33.00;19.00
26185;PMS7003;20067;48.764;9.176;2022-09-01T02:18:33;30.75;27.25;18.00
26185;PMS7003;20067;48.764;9.176;2022-09-01T02:21:06;34.75;29.75;18.50
26185;PMS7003;20067;48.764;9.176;2022-09-01T02:23:35;37.00;33.00;21.75
26185;PMS7003;20067;48.764;9.176;2022-09-01T02:26:01;36.25;29.25;17.75
26185;PMS7003;20067;48.764;9.176;2022-09-01T02:28:27;36.50;34.00;19.50
26185;PMS7003;20067;48.764;9.176;2022-09-01T02:30:56;35.75;34.25;21.25
26185;PMS7003;20067;48.764;9.176;2022-09-01T02:33:24;32.50;29.00;18.25
26185;PMS7003;20067;48.764;9.176;2022-09-01T02:35:52;35.75;31.75;18.00
26185;PMS7003;20067;48.764;9.176;2022-09-01T02:38:20;37.25;34.25;21.00
26185;PMS7003;20067;48.764;9.176;2022-09-01T02:40:53;38.50;32.00;18.00
26185;PMS7003;20067;48.764;9.176;2022-09-01T02:43:20;36.50;36.25;21.25
26185;PMS7003;20067;48.764;9.176;2022-09-01T02:45:47;37.00;32.00;20.50
26185;PMS7003;20067;48.764;9.176;2022-09-01T02:48:20;40.25;32.00;21.00
26185;PMS7003;20067;48.764;9.176;2022-09-01T02:50:50;39.50;34.25;20.25
26185;PMS7003;20067;48.764;9.176;2022-09-01T02:53:16;33.75;32.00;19.50
26185;PMS7003;20067;48.764;9.176;2022-09-01T02:55:44;38.00;32.00;20.00
26185;PMS7003;20067;48.764;9.176;2022-09-01T02:58:09;34.00;31.00;20.75
26185;PMS7003;20067;48.764;9.176;2022-09-01T03:00:41;31.00;29.50;19.00
26185;PMS7003;20067;48.764;9.176;2022-09-01T03:03:07;36.00;35.25;22.00
26185;PMS7003;20067;48.764;9.176;2022-09-01T03:05:36;39.75;33.00;21.50
26185;PMS7003;20067;48.764;9.176;2022-09-01T03:08:08;38.75;35.00;19.75
26185;PMS7003;20067;48.764;9.176;2022-09-01T03:10:37;34.00;32.00;18.00
26185;PMS7003;20067;48.764;9.176;2022-09-01T03:13:06;35.75;34.75;22.00
26185;PMS7003;20067;48.764;9.176;2022-09-01T03:15:37;40.00;29.25;20.25
26185;PMS7003;20067;48.764;9.176;2022-09-01T03:18:03;34.00;33.00;22.25
26185;PMS7003;20067;48.764;9.176;2022-09-01T03:20:31;34.50;31.75;21.50
26185;PMS7003;20067;48.764;9.176;2022-09-01T03:23:02;34.00;31.75;21.00
26185;PMS7003;20067;48.764;9.176;2022-09-01T03:25:32;34.25;30.50;21.00
26185;PMS7003;20067;48.764;9.176;2022-09-01T03:27:59;34.00;32.25;20.00
26185;PMS7003;20067;48.764;9.176;2022-09-01T03:30:25;37.50;34.25;20.25
26185;PMS7003;20067;48.764;9.176;2022-09-01T03:32:54;34.00;29.75;18.25
26185;PMS7003;20067;48.764;9.176;2022-09-01T03:35:24;33.00;29.25;19.25
26185;PMS7003;20067;48.764;9.176;2022-09-01T03:37:51;35.00;31.00;21.00
26185;PMS7003;20067;48.764;9.176;2022-09-01T03:40:17;30.25;26.50;18.25
26185;PMS7003;20067;48.764;9.176;2022-09-01T03:42:43;32.00;29.00;17.00
26185;PMS7003;20067;48.764;9.176;2022-09-01T03:45:10;29.25;29.25;18.25
26185;PMS7003;20067;48.764;9.176;2022-09-01T03:47:39;37.25;32.25;21.00
26185;PMS7003;20067;48.764;9.176;2022-09-01T03:50:07;39.25;34.25;19.25
26185;PMS7003;20067;48.764;9.176;2022-09-01T03:52:48;37.25;30.00;18.00
26185;PMS7003;20067;48.764;9.176;2022-09-01T03:55:19;33.00;30.00;18.75
26185;PMS7003;20067;48.764;9.176;2022-09-01T03:57:50;36.50;34.00;19.25
26185;PMS7003;20067;48.764;9.176;2022-09-01T04:00:17;38.25;34.00;20.25
26185;PMS7003;20067;48.764;9.176;2022-09-01T04:02:51;43.25;36.00;21.00
26185;PMS7003;20067;48.764;9.176;2022-09-01T04:05:21;45.25;37.00;25.00
26185;PMS7003;20067;48.764;9.176;2022-09-01T04:07:52;49.25;42.50;27.00
26185;PMS7003;20067;48.764;9.176;2022-09-01T04:10:22;50.00;43.00;29.75
26185;PMS7003;20067;48.764;9.176;2022-09-01T04:12:48;45.67;42.33;29.67
26185;PMS7003;20067;48.764;9.176;2022-09-01T04:15:15;44.00;42.33;29.67
26185;PMS7003;20067;48.764;9.176;2022-09-01T04:17:45;37.00;35.50;25.75
26185;PMS7003;20067;48.764;9.176;2022-09-01T04:20:33;46.50;39.75;27.75
26185;PMS7003;20067;48.764;9.176;2022-09-01T04:23:19;40.00;38.00;26.00
26185;PMS7003;20067;48.764;9.176;2022-09-01T04:25:51;43.75;38.25;27.00
26185;PMS7003;20067;48.764;9.176;2022-09-01T04:28:24;47.00;40.50;27.00
26185;PMS7003;20067;48.764;9.176;2022-09-01T04:30:58;49.50;40.25;27.00
26185;PMS7003;20067;48.764;9.176;2022-09-01T04:33:32;42.50;37.25;27.00
26185;PMS7003;20067;48.764;9.176;2022-09-01T04:38:43;39.00;35.75;26.50
26185;PMS7003;20067;48.764;9.176;2022-09-01T04:41:13;38.00;34.75;24.25
26185;PMS7003;20067;48.764;9.176;2022-09-01T04:43:45;39.00;34.75;24.00
26185;PMS7003;20067;48.764;9.176;2022-09-01T04:46:14;41.75;37.00;24.00
26185;PMS7003;20067;48.764;9.176;2022-09-01T04:48:41;40.50;36.50;24.00
26185;PMS7003;20067;48.764;9.176;2022-09-01T04:51:09;44.50;37.75;24.50
26185;PMS7003;20067;48.764;9.176;2022-09-01T04:53:39;34.25;33.75;22.75
26185;PMS7003;20067;48.764;9.176;2022-09-01T04:56:07;38.50;34.50;23.00
26185;PMS7003;20067;48.764;9.176;2022-09-01T04:58:34;38.00;34.00;25.00
26185;PMS7003;20067;48.764;9.176;2022-09-01T05:01:01;37.25;34.00;23.50
26185;PMS7003;20067;48.764;9.176;2022-09-01T05:03:37;44.00;38.00;23.00
26185;PMS7003;20067;48.764;9.176;2022-09-01T05:06:03;38.50;37.00;23.00
26185;PMS7003;20067;48.764;9.176;2022-09-01T05:08:29;34.25;33.00;23.00
26185;PMS7003;20067;48.764;9.176;2022-09-01T05:10:58;43.75;32.75;24.00
26185;PMS7003;20067;48.764;9.176;2022-09-01T05:13:30;40.25;37.25;21.75
26185;PMS7003;20067;48.764;9.176;2022-09-01T05:16:00;36.50;33.00;24.00
26185;PMS7003;20067;48.764;9.176;2022-09-01T05:18:30;34.25;34.25;24.00
26185;PMS7003;20067;48.764;9.176;2022-09-01T05:20:57;39.50;35.50;23.00
26185;PMS7003;20067;48.764;9.176;2022-09-01T05:23:33;37.25;34.00;24.00
26185;PMS7003;20067;48.764;9.176;2022-09-01T05:26:00;35.00;33.25;21.75
26185;PMS7003;20067;48.764;9.176;2022-09-01T05:28:28;38.50;36.50;23.75
26185;PMS7003;20067;48.764;9.176;2022-09-01T05:30:53;44.00;35.75;23.25
26185;PMS7003;20067;48.764;9.176;2022-09-01T05:33:19;37.25;34.00;22.50
26185;PMS7003;20067;48.764;9.176;2022-09-01T05:35:56;39.75;36.00;24.50
26185;PMS7003;20067;48.764;9.176;2022-09-01T05:38:25;33.50;32.50;19.75
26185;PMS7003;20067;48.764;9.176;2022-09-01T05:40:59;37.75;35.75;25.00
26185;PMS7003;20067;48.764;9.176;2022-09-01T05:43:27;41.00;35.75;22.50
26185;PMS7003;20067;48.764;9.176;2022-09-01T05:45:55;35.00;33.00;20.75
26185;PMS7003;20067;48.764;9.176;2022-09-01T05:48:22;38.25;34.25;22.25
26185;PMS7003;20067;48.764;9.176;2022-09-01T05:50:48;38.75;35.50;23.25
26185;PMS7003;20067;48.764;9.176;2022-09-01T05:53:16;38.75;35.75;22.75
26185;PMS7003;20067;48.764;9.176;2022-09-01T05:55:46;38.50;34.25;22.00
26185;PMS7003;20067;48.764;9.176;2022-09-01T05:58:13;41.25;38.75;23.00
26185;PMS7003;20067;48.764;9.176;2022-09-01T06:00:43;36.50;35.50;23.25
26185;PMS7003;20067;48.764;9.176;2022-09-01T06:03:13;40.25;36.50;23.75
26185;PMS7003;20067;48.764;9.176;2022-09-01T06:05:41;41.75;36.25;24.50
26185;PMS7003;20067;48.764;9.176;2022-09-01T06:08:09;42.75;38.75;26.00
26185;PMS7003;20067;48.764;9.176;2022-09-01T06:10:38;40.75;37.50;26.00
26185;PMS7003;20067;48.764;9.176;2022-09-01T06:13:05;47.50;39.75;26.75
26185;PMS7003;20067;48.764;9.176;2022-09-01T06:15:32;43.00;39.75;26.50
26185;PMS7003;20067;48.764;9.176;2022-09-01T06:18:03;53.50;44.50;29.00
26185;PMS7003;20067;48.764;9.176;2022-09-01T06:20:30;46.00;40.00;27.75
26185;PMS7003;20067;48.764;9.176;2022-09-01T06:22:56;48.25;42.25;28.00
26185;PMS7003;20067;48.764;9.176;2022-09-01T06:25:22;55.25;47.00;30.75
26185;PMS7003;20067;48.764;9.176;2022-09-01T06:27:49;57.50;44.25;29.25
26185;PMS7003;20067;48.764;9.176;2022-09-01T06:30:16;49.25;42.00;28.25
26185;PMS7003;20067;48.764;9.176;2022-09-01T06:32:46;51.50;41.75;28.25
26185;PMS7003;20067;48.764;9.176;2022-09-01T06:35:14;45.25;39.00;27.75
26185;PMS7003;20067;48.764;9.176;2022-09-01T06:37:40;47.00;41.25;27.25
26185;PMS7003;20067;48.764;9.176;2022-09-01T06:40:08;43.00;37.75;25.75
26185;PMS7003;20067;48.764;9.176;2022-09-01T06:42:41;40.50;36.00;25.00
26185;PMS7003;20067;48.764;9.176;2022-09-01T06:45:09;44.00;39.75;25.00
26185;PMS7003;20067;48.764;9.176;2022-09-01T06:47:35;42.75;38.75;25.00
26185;PMS7003;20067;48.764;9.176;2022-09-01T06:50:02;40.00;37.25;25.00
26185;PMS7003;20067;48.764;9.176;2022-09-01T06:52:28;46.75;37.50;24.50
26185;PMS7003;20067;48.764;9.176;2022-09-01T06:54:53;38.75;35.75;22.25
26185;PMS7003;20067;48.764;9.176;2022-09-01T06:57:20;42.00;36.00;23.00
26185;PMS7003;20067;48.764;9.176;2022-09-01T06:59:46;40.50;37.25;22.50
26185;PMS7003;20067;48.764;9.176;2022-09-01T07:02:13;39.25;36.25;22.75
26185;PMS7003;20067;48.764;9.176;2022-09-01T07:04:40;48.00;39.25;23.50
26185;PMS7003;20067;48.764;9.176;2022-09-01T07:07:09;38.50;34.00;23.00
26185;PMS7003;20067;48.764;9.176;2022-09-01T07:09:35;37.50;33.75;22.00
26185;PMS7003;20067;48.764;9.176;2022-09-01T07:12:01;45.25;38.00;23.25
26185;PMS7003;20067;48.764;9.176;2022-09-01T07:14:28;43.25;34.75;23.00
26185;PMS7003;20067;48.764;9.176;2022-09-01T07:16:54;35.75;31.25;21.00
26185;PMS7003;20067;48.764;9.176;2022-09-01T07:19:22;43.75;36.00;23.75
26185;PMS7003;20067;48.764;9.176;2022-09-01T07:21:49;35.00;32.75;21.00
26185;PMS7003;20067;48.764;9.176;2022-09-01T07:24:16;37.00;33.50;21.50
26185;PMS7003;20067;48.764;9.176;2022-09-01T07:26:44;39.75;32.50;21.50
26185;PMS7003;20067;48.764;9.176;2022-09-01T07:29:15;40.25;36.25;22.75
26185;PMS7003;20067;48.764;9.176;2022-09-01T07:31:42;38.25;33.50;19.50
26185;PMS7003;20067;48.764;9.176;2022-09-01T07:34:09;36.25;33.25;21.75
26185;PMS7003;20067;48.764;9.176;2022-09-01T07:36:40;37.00;35.50;22.50
26185;PMS7003;20067;48.764;9.176;2022-09-01T07:39:07;37.50;32.00;21.00
26185;PMS7003;20067;48.764;9.176;2022-09-01T07:41:34;38.25;35.50;20.50
26185;PMS7003;20067;48.764;9.176;2022-09-01T07:44:01;33.75;29.25;18.00
26185;PMS7003;20067;48.764;9.176;2022-09-01T07:46:29;33.25;29.00;17.25
26185;PMS7003;20067;48.764;9.176;2022-09-01T07:48:58;36.00;30.50;18.00
26185;PMS7003;20067;48.764;9.176;2022-09-01T07:51:26;37.25;31.75;19.50
26185;PMS7003;20067;48.764;9.176;2022-09-01T07:53:52;26.25;25.00;16.75
26185;PMS7003;20067;48.764;9.176;2022-09-01T07:56:19;36.25;29.50;18.50
26185;PMS7003;20067;48.764;9.176;2022-09-01T07:58:47;33.25;27.75;16.25
26185;PMS7003;20067;48.764;9.176;2022-09-01T08:01:14;31.00;29.00;16.50
26185;PMS7003;20067;48.764;9.176;2022-09-01T08:03:46;34.00;29.75;18.25
26185;PMS7003;20067;48.764;9.176;2022-09-01T08:06:16;33.25;29.75;16.25
26185;PMS7003;20067;48.764;9.176;2022-09-01T08:08:44;34.25;30.25;17.75
26185;PMS7003;20067;48.764;9.176;2022-09-01T08:11:17;34.50;27.25;18.50
26185;PMS7003;20067;48.764;9.176;2022-09-01T08:13:46;26.25;26.00;15.00
26185;PMS7003;20067;48.764;9.176;2022-09-01T08:16:12;26.00;24.50;17.00
26185;PMS7003;20067;48.764;9.176;2022-09-01T08:18:38;26.50;25.50;17.25
26185;PMS7003;20067;48.764;9.176;2022-09-01T08:21:08;28.75;25.25;16.75
26185;PMS7003;20067;48.764;9.176;2022-09-01T08:23:35;31.75;23.00;16.00
26185;PMS7003;20067;48.764;9.176;2022-09-01T08:26:09;28.25;25.00;14.75
26185;PMS7003;20067;48.764;9.176;2022-09-01T08:28:37;25.00;23.75;15.00
26185;PMS7003;20067;48.764;9.176;2022-09-01T08:31:06;24.50;20.25;12.00
26185;PMS7003;20067;48.764;9.176;2022-09-01T08:33:40;32.75;25.00;13.00
26185;PMS7003;20067;48.764;9.176;2022-09-01T08:36:07;24.75;22.25;12.75
26185;PMS7003;20067;48.764;9.176;2022-09-01T08:38:33;26.25;23.25;13.00
26185;PMS7003;20067;48.764;9.176;2022-09-01T08:41:00;22.75;21.25;12.75
26185;PMS7003;20067;48.764;9.176;2022-09-01T08:43:34;21.75;20.50;13.50
26185;PMS7003;20067;48.764;9.176;2022-09-01T08:46:35;21.00;18.50;12.25
26185;PMS7003;20067;48.764;9.176;2022-09-01T08:49:06;23.50;21.50;12.00
26185;PMS7003;20067;48.764;9.176;2022-09-01T08:51:42;28.00;21.00;13.00
26185;PMS7003;20067;48.764;9.176;2022-09-01T08:54:23;25.25;23.50;13.00
26185;PMS7003;20067;48.764;9.176;2022-09-01T08:56:59;25.75;23.25;13.00
26185;PMS7003;20067;48.764;9.176;2022-09-01T08:59:29;26.75;23.25;13.25
26185;PMS7003;20067;48.764;9.176;2022-09-01T09:01:58;23.75;21.50;11.75
26185;PMS7003;20067;48.764;9.176;2022-09-01T09:16:11;21.00;19.50;11.00
26185;PMS7003;20067;48.764;9.176;2022-09-01T09:18:47;23.50;22.00;12.00
26185;PMS7003;20067;48.764;9.176;2022-09-01T09:21:34;20.75;20.50;11.75
26185;PMS7003;20067;48.764;9.176;2022-09-01T09:27:44;21.00;18.00;11.00
26185;PMS7003;20067;48.764;9.176;2022-09-01T09:30:05;25.25;23.50;12.00
26185;PMS7003;20067;48.764;9.176;2022-09-01T09:32:41;21.75;21.75;13.00
26185;PMS7003;20067;48.764;9.176;2022-09-01T09:43:24;20.25;20.00;11.50
26185;PMS7003;20067;48.764;9.176;2022-09-01T09:48:47;23.00;21.00;13.00
26185;PMS7003;20067;48.764;9.176;2022-09-01T09:51:29;21.00;18.25;11.50
26185;PMS7003;20067;48.764;9.176;2022-09-01T09:54:09;21.00;15.75;9.50
26185;PMS7003;20067;48.764;9.176;2022-09-01T09:57:08;21.25;20.25;13.25
26185;PMS7003;20067;48.764;9.176;2022-09-01T10:04:50;20.50;17.75;10.00
26185;PMS7003;20067;48.764;9.176;2022-09-01T10:07:31;24.25;21.00;12.25
26185;PMS7003;20067;48.764;9.176;2022-09-01T10:10:04;14.75;14.75;9.00
26185;PMS7003;20067;48.764;9.176;2022-09-01T10:12:48;17.25;16.50;10.00
26185;PMS7003;20067;48.764;9.176;2022-09-01T10:15:21;18.50;15.50;9.00
26185;PMS7003;20067;48.764;9.176;2022-09-01T10:17:48;18.50;16.00;9.75
26185;PMS7003;20067;48.764;9.176;2022-09-01T10:22:45;15.75;14.00;9.25
26185;PMS7003;20067;48.764;9.176;2022-09-01T10:25:16;15.75;15.75;10.00
26185;PMS7003;20067;48.764;9.176;2022-09-01T10:27:55;17.00;14.50;9.00
26185;PMS7003;20067;48.764;9.176;2022-09-01T10:30:26;17.75;17.50;11.00
26185;PMS7003;20067;48.764;9.176;2022-09-01T10:32:55;18.00;17.00;10.00
26185;PMS7003;20067;48.764;9.176;2022-09-01T10:35:29;19.75;16.50;10.00
26185;PMS7003;20067;48.764;9.176;2022-09-01T10:37:58;19.50;17.00;9.00
26185;PMS7003;20067;48.764;9.176;2022-09-01T10:43:43;15.25;14.75;9.00
26185;PMS7003;20067;48.764;9.176;2022-09-01T10:45:47;20.00;17.00;9.75
26185;PMS7003;20067;48.764;9.176;2022-09-01T10:50:46;13.25;11.00;6.00
26185;PMS7003;20067;48.764;9.176;2022-09-01T10:56:43;12.00;12.00;7.00
26185;PMS7003;20067;48.764;9.176;2022-09-01T11:04:23;12.50;12.00;8.50
26185;PMS7003;20067;48.764;9.176;2022-09-01T11:07:00;13.25;13.25;7.25
26185;PMS7003;20067;48.764;9.176;2022-09-01T11:09:41;15.00;14.25;9.00
26185;PMS7003;20067;48.764;9.176;2022-09-01T11:15:05;13.25;13.25;8.00
26185;PMS7003;20067;48.764;9.176;2022-09-01T11:18:16;12.00;11.00;7.00
26185;PMS7003;20067;48.764;9.176;2022-09-01T11:20:50;13.25;12.00;8.25
26185;PMS7003;20067;48.764;9.176;2022-09-01T11:35:39;14.00;13.00;9.00
26185;PMS7003;20067;48.764;9.176;2022-09-01T11:38:09;13.75;13.25;8.00
26185;PMS7003;20067;48.764;9.176;2022-09-01T11:40:39;14.00;13.50;7.75
26185;PMS7003;20067;48.764;9.176;2022-09-01T11:43:14;10.00;9.25;6.00
26185;PMS7003;20067;48.764;9.176;2022-09-01T11:48:46;13.00;13.00;7.00
26185;PMS7003;20067;48.764;9.176;2022-09-01T11:51:13;10.00;10.00;6.00
26185;PMS7003;20067;48.764;9.176;2022-09-01T11:53:41;11.75;11.75;6.75
26185;PMS7003;20067;48.764;9.176;2022-09-01T11:56:13;11.25;11.25;7.00
26185;PMS7003;20067;48.764;9.176;2022-09-01T11:58:45;13.50;11.50;7.75
26185;PMS7003;20067;48.764;9.176;2022-09-01T12:03:45;11.25;11.00;7.00
26185;PMS7003;20067;48.764;9.176;2022-09-01T12:06:18;11.00;11.00;7.00
26185;PMS7003;20067;48.764;9.176;2022-09-01T12:08:52;11.00;11.00;7.25
26185;PMS7003;20067;48.764;9.176;2022-09-01T12:11:23;14.50;14.00;8.00
26185;PMS7003;20067;48.764;9.176;2022-09-01T12:16:54;12.00;11.00;6.25
26185;PMS7003;20067;48.764;9.176;2022-09-01T12:19:26;14.75;12.75;7.50
26185;PMS7003;20067;48.764;9.176;2022-09-01T12:22:06;11.00;11.00;7.25
26185;PMS7003;20067;48.764;9.176;2022-09-01T12:24:42;11.00;11.00;7.25
26185;PMS7003;20067;48.764;9.176;2022-09-01T12:27:09;9.00;9.00;5.75
26185;PMS7003;20067;48.764;9.176;2022-09-01T12:29:36;11.25;10.75;7.00
26185;PMS7003;20067;48.764;9.176;2022-09-01T12:32:02;13.00;11.75;6.75
26185;PMS7003;20067;48.764;9.176;2022-09-01T12:39:53;12.50;11.75;8.00
26185;PMS7003;20067;48.764;9.176;2022-09-01T12:42:27;14.00;12.25;8.00
26185;PMS7003;20067;48.764;9.176;2022-09-01T12:45:03;12.75;12.00;7.00
26185;PMS7003;20067;48.764;9.176;2022-09-01T12:52:32;13.00;13.00;7.50
26185;PMS7003;20067;48.764;9.176;2022-09-01T12:57:36;15.00;11.75;6.75
26185;PMS7003;20067;48.764;9.176;2022-09-01T13:02:37;12.00;11.00;6.00
26185;PMS7003;20067;48.764;9.176;2022-09-01T13:05:17;11.25;11.25;7.00
26185;PMS7003;20067;48.764;9.176;2022-09-01T13:07:52;12.00;12.00;7.25
26185;PMS7003;20067;48.764;9.176;2022-09-01T13:10:19;12.75;11.00;6.00
26185;PMS7003;20067;48.764;9.176;2022-09-01T13:12:47;13.75;13.50;7.00
26185;PMS7003;20067;48.764;9.176;2022-09-01T13:15:13;9.50;9.00;5.00
26185;PMS7003;20067;48.764;9.176;2022-09-01T13:17:38;9.75;9.50;5.50
26185;PMS7003;20067;48.764;9.176;2022-09-01T13:20:04;11.25;11.00;6.25
26185;PMS7003;20067;48.764;9.176;2022-09-01T13:22:31;9.25;9.25;5.50
26185;PMS7003;20067;48.764;9.176;2022-09-01T13:24:56;10.25;10.00;6.75
26185;PMS7003;20067;48.764;9.176;2022-09-01T13:27:22;10.50;10.50;7.00
26185;PMS7003;20067;48.764;9.176;2022-09-01T13:29:48;11.25;11.00;6.75
26185;PMS7003;20067;48.764;9.176;2022-09-01T13:32:14;10.25;10.25;6.25
26185;PMS7003;20067;48.764;9.176;2022-09-01T13:34:41;13.00;11.00;6.00
26185;PMS7003;20067;48.764;9.176;2022-09-01T13:37:06;12.50;10.75;6.00
26185;PMS7003;20067;48.764;9.176;2022-09-01T13:39:32;10.00;10.00;5.25
26185;PMS7003;20067;48.764;9.176;2022-09-01T13:41:57;10.75;10.75;5.75
26185;PMS7003;20067;48.764;9.176;2022-09-01T13:44:23;10.75;10.25;6.00
26185;PMS7003;20067;48.764;9.176;2022-09-01T13:46:49;12.00;11.75;6.50
26185;PMS7003;20067;48.764;9.176;2022-09-01T13:49:14;9.25;9.00;5.25
26185;PMS7003;20067;48.764;9.176;2022-09-01T13:51:40;11.00;10.00;6.00
26185;PMS7003;20067;48.764;9.176;2022-09-01T13:54:06;10.25;10.25;7.00
26185;PMS7003;20067;48.764;9.176;2022-09-01T13:56:31;10.00;9.00;5.50
26185;PMS7003;20067;48.764;9.176;2022-09-01T13:58:57;10.25;10.25;5.75
26185;PMS7003;20067;48.764;9.176;2022-09-01T14:01:22;13.25;13.25;8.00
26185;PMS7003;20067;48.764;9.176;2022-09-01T14:03:48;11.50;10.00;6.75
26185;PMS7003;20067;48.764;9.176;2022-09-01T14:06:14;11.75;11.00;7.00
26185;PMS7003;20067;48.764;9.176;2022-09-01T14:08:40;12.50;12.00;7.50
26185;PMS7003;20067;48.764;9.176;2022-09-01T14:11:06;13.00;12.00;7.75
26185;PMS7003;20067;48.764;9.176;2022-09-01T14:13:32;13.50;12.50;7.25
26185;PMS7003;20067;48.764;9.176;2022-09-01T14:15:59;13.50;11.50;7.50
26185;PMS7003;20067;48.764;9.176;2022-09-01T14:18:25;12.00;12.00;8.00
26185;PMS7003;20067;48.764;9.176;2022-09-01T14:20:56;11.00;11.00;7.50
26185;PMS7003;20067;48.764;9.176;2022-09-01T14:23:25;13.00;13.00;8.00
26185;PMS7003;20067;48.764;9.176;2022-09-01T14:25:52;13.50;12.00;7.00
26185;PMS7003;20067;48.764;9.176;2022-09-01T14:28:19;13.00;13.00;7.50
26185;PMS7003;20067;48.764;9.176;2022-09-01T14:30:46;14.25;12.75;9.25
26185;PMS7003;20067;48.764;9.176;2022-09-01T14:33:13;11.25;11.25;8.00
26185;PMS7003;20067;48.764;9.176;2022-09-01T14:35:40;13.25;12.00;7.00
26185;PMS7003;20067;48.764;9.176;2022-09-01T14:38:07;11.00;11.00;8.00
26185;PMS7003;20067;48.764;9.176;2022-09-01T14:40:35;11.00;11.00;7.50
26185;PMS7003;20067;48.764;9.176;2022-09-01T14:43:02;10.50;10.00;7.00
26185;PMS7003;20067;48.764;9.176;2022-09-01T14:45:30;10.75;10.25;7.00
26185;PMS7003;20067;48.764;9.176;2022-09-01T14:47:56;13.75;12.00;8.00
26185;PMS7003;20067;48.764;9.176;2022-09-01T14:50:25;9.00;9.00;5.25
26185;PMS7003;20067;48.764;9.176;2022-09-01T14:52:54;11.25;9.75;6.00
26185;PMS7003;20067;48.764;9.176;2022-09-01T14:55:21;9.75;9.75;6.00
26185;PMS7003;20067;48.764;9.176;2022-09-01T14:57:47;11.00;11.00;6.50
26185;PMS7003;20067;48.764;9.176;2022-09-01T15:00:14;10.25;10.25;6.50
26185;PMS7003;20067;48.764;9.176;2022-09-01T15:02:41;10.00;10.00;6.00
26185;PMS7003;20067;48.764;9.176;2022-09-01T15:05:07;10.00;10.00;6.75
26185;PMS7003;20067;48.764;9.176;2022-09-01T15:07:34;8.50;8.50;5.00
26185;PMS7003;20067;48.764;9.176;2022-09-01T15:10:00;9.50;9.00;6.00
26185;PMS7003;20067;48.764;9.176;2022-09-01T15:12:26;11.25;11.25;6.00
26185;PMS7003;20067;48.764;9.176;2022-09-01T15:14:54;10.00;10.00;6.00
26185;PMS7003;20067;48.764;9.176;2022-09-01T15:17:21;11.75;10.00;6.00
26185;PMS7003;20067;48.764;9.176;2022-09-01T15:19:47;10.00;9.50;6.00
26185;PMS7003;20067;48.764;9.176;2022-09-01T15:22:12;11.00;11.00;7.00
26185;PMS7003;20067;48.764;9.176;2022-09-01T15:24:38;12.00;11.25;6.00
26185;PMS7003;20067;48.764;9.176;2022-09-01T15:27:04;11.75;10.00;6.25
26185;PMS7003;20067;48.764;9.176;2022-09-01T15:29:30;11.00;10.75;7.00
26185;PMS7003;20067;48.764;9.176;2022-09-01T15:31:58;14.75;11.00;7.00
26185;PMS7003;20067;48.764;9.176;2022-09-01T15:34:25;12.00;10.50;6.25
26185;PMS7003;20067;48.764;9.176;2022-09-01T15:36:51;11.50;10.50;7.00
26185;PMS7003;20067;48.764;9.176;2022-09-01T15:39:17;13.25;12.25;8.00